Time;durP1;ratioP1;P1;durP2;ratioP2;P2;SDS_P1;SDS_P2;PMS_P1;PMS_P2;Temp;Humidity;BMP_temperature;BMP_pressure;BME280_temperature;BME280_humidity;BME280_pressure;Samples;Min_cycle;Max_cycle;Signal;HPM_P1;HPM_P2
2021/10/24 00:00:04;;;;;;;0.40;0.40;;;;;;;;;;5040951;28;20428;-60
2021/10/24 00:02:30;;;;;;;0.40;0.40;;;;;;;;;;5039071;28;20179;-65
2021/10/24 00:04:56;;;;;;;0.40;0.40;;;;;;;;;;5041709;28;20201;-66
2021/10/24 00:07:22;;;;;;;0.40;0.40;;;;;;;;;;5040023;28;20193;-65
2021/10/24 00:09:49;;;;;;;0.40;0.40;;;;;;;;;;5041041;28;20417;-64
2021/10/24 00:12:16;;;;;;;0.40;0.40;;;;;;;;;;5042069;28;20499;-64
2021/10/24 00:14:42;;;;;;;0.55;0.55;;;;;;;;;;5040868;28;20560;-65
2021/10/24 00:17:08;;;;;;;0.50;0.50;;;;;;;;;;5039832;28;20201;-66
2021/10/24 00:19:34;;;;;;;0.50;0.50;;;;;;;;;;5041784;28;20657;-65
2021/10/24 00:22:00;;;;;;;0.50;0.50;;;;;;;;;;5040822;28;20424;-65
2021/10/24 00:24:26;;;;;;;0.50;0.50;;;;;;;;;;5041036;28;20450;-65
2021/10/24 00:26:52;;;;;;;0.60;0.60;;;;;;;;;;5041829;28;20201;-65
2021/10/24 00:29:19;;;;;;;0.40;0.40;;;;;;;;;;5040804;28;20177;-66
2021/10/24 00:31:45;;;;;;;0.40;0.40;;;;;;;;;;5040898;28;20539;-64
2021/10/24 00:34:11;;;;;;;0.50;0.50;;;;;;;;;;5041270;28;20189;-65
2021/10/24 00:36:37;;;;;;;0.50;0.50;;;;;;;;;;5039844;28;20199;-64
2021/10/24 00:39:03;;;;;;;0.50;0.50;;;;;;;;;;5040082;28;20184;-65
2021/10/24 00:41:31;;;;;;;0.50;0.50;;;;;;;;;;5041078;28;20943;-65
2021/10/24 00:43:57;;;;;;;0.50;0.50;;;;;;;;;;5042011;28;20563;-66
2021/10/24 00:46:23;;;;;;;0.50;0.50;;;;;;;;;;5041629;28;20226;-65
2021/10/24 00:48:49;;;;;;;0.50;0.50;;;;;;;;;;5043166;28;20174;-66
2021/10/24 00:51:15;;;;;;;0.50;0.50;;;;;;;;;;5042809;28;20183;-63
2021/10/24 00:53:41;;;;;;;0.50;0.50;;;;;;;;;;5040155;28;20547;-66
2021/10/24 00:56:08;;;;;;;0.50;0.50;;;;;;;;;;5038565;28;20198;-65
2021/10/24 00:58:35;;;;;;;0.40;0.40;;;;;;;;;;5057398;22;20265;-66
2021/10/24 01:01:02;;;;;;;0.40;0.40;;;;;;;;;;5017150;28;20210;-66
2021/10/24 01:03:28;;;;;;;0.50;0.50;;;;;;;;;;5019224;28;20235;-65
2021/10/24 01:05:55;;;;;;;0.43;0.43;;;;;;;;;;5020939;28;20552;-66
2021/10/24 01:08:21;;;;;;;0.40;0.40;;;;;;;;;;5018416;28;20181;-66
2021/10/24 01:10:47;;;;;;;0.40;0.40;;;;;;;;;;5017283;28;20203;-66
2021/10/24 01:13:13;;;;;;;0.50;0.50;;;;;;;;;;5020051;28;20244;-66
2021/10/24 01:15:39;;;;;;;0.40;0.40;;;;;;;;;;5023513;28;20413;-66
2021/10/24 01:18:07;;;;;;;0.40;0.40;;;;;;;;;;5022982;28;20188;-66
2021/10/24 01:20:33;;;;;;;0.40;0.40;;;;;;;;;;5022507;28;20319;-67
2021/10/24 01:22:59;;;;;;;0.50;0.50;;;;;;;;;;5023528;28;20617;-67
2021/10/24 01:25:26;;;;;;;0.40;0.40;;;;;;;;;;5022872;28;20475;-67
2021/10/24 01:27:51;;;;;;;0.50;0.50;;;;;;;;;;5022583;28;20604;-67
2021/10/24 01:30:18;;;;;;;0.40;0.40;;;;;;;;;;5023577;28;20199;-67
2021/10/24 01:32:44;;;;;;;0.50;0.50;;;;;;;;;;5024685;28;20417;-67
2021/10/24 01:35:11;;;;;;;0.60;0.60;;;;;;;;;;5020979;28;20225;-67
2021/10/24 01:37:38;;;;;;;0.50;0.50;;;;;;;;;;5012701;28;20645;-67
2021/10/24 01:40:07;;;;;;;0.43;0.43;;;;;;;;;;5012326;28;20235;-67
2021/10/24 01:42:33;;;;;;;0.40;0.40;;;;;;;;;;5013255;28;20961;-67
2021/10/24 01:44:59;;;;;;;0.40;0.40;;;;;;;;;;5013598;28;20275;-67
2021/10/24 01:47:25;;;;;;;0.40;0.40;;;;;;;;;;5013405;28;20437;-67
2021/10/24 01:49:51;;;;;;;0.40;0.40;;;;;;;;;;5013989;28;20967;-67
2021/10/24 01:52:17;;;;;;;0.40;0.40;;;;;;;;;;5013765;28;20426;-67
2021/10/24 01:54:43;;;;;;;0.40;0.40;;;;;;;;;;5012748;28;20425;-67
2021/10/24 01:57:09;;;;;;;0.40;0.40;;;;;;;;;;5013659;28;20734;-67
2021/10/24 01:59:35;;;;;;;0.40;0.40;;;;;;;;;;5013939;28;20263;-67
2021/10/24 02:02:01;;;;;;;0.50;0.50;;;;;;;;;;5013327;28;20428;-67
2021/10/24 02:04:27;;;;;;;0.50;0.50;;;;;;;;;;5013625;28;20966;-67
2021/10/24 02:06:53;;;;;;;0.40;0.40;;;;;;;;;;5014013;28;20422;-67
2021/10/24 02:09:19;;;;;;;0.60;0.60;;;;;;;;;;5013664;28;20201;-67
2021/10/24 02:11:45;;;;;;;0.50;0.50;;;;;;;;;;5013379;28;20430;-67
2021/10/24 02:14:11;;;;;;;0.40;0.40;;;;;;;;;;5013236;28;20462;-67
2021/10/24 02:16:37;;;;;;;0.40;0.40;;;;;;;;;;5013629;28;20414;-67
2021/10/24 02:19:03;;;;;;;0.47;0.47;;;;;;;;;;5013197;28;20471;-67
2021/10/24 02:21:30;;;;;;;0.40;0.40;;;;;;;;;;5013242;28;20476;-67
2021/10/24 02:23:56;;;;;;;0.50;0.50;;;;;;;;;;5013211;28;20468;-67
2021/10/24 02:26:21;;;;;;;0.50;0.50;;;;;;;;;;5013013;28;20173;-67
2021/10/24 02:28:47;;;;;;;0.50;0.50;;;;;;;;;;5013434;28;20447;-67
2021/10/24 02:31:13;;;;;;;0.60;0.60;;;;;;;;;;5013149;28;20405;-67
2021/10/24 02:33:39;;;;;;;0.40;0.40;;;;;;;;;;5012916;28;20935;-67
2021/10/24 02:36:05;;;;;;;0.60;0.60;;;;;;;;;;5013035;28;20856;-67
2021/10/24 02:38:31;;;;;;;0.40;0.40;;;;;;;;;;5013219;28;20415;-67
2021/10/24 02:40:57;;;;;;;0.50;0.50;;;;;;;;;;5012777;28;20515;-67
2021/10/24 02:43:23;;;;;;;0.40;0.40;;;;;;;;;;5012782;28;20525;-67
2021/10/24 02:45:49;;;;;;;0.40;0.40;;;;;;;;;;5013066;28;20413;-67
2021/10/24 02:48:15;;;;;;;0.40;0.40;;;;;;;;;;5012494;28;20425;-67
2021/10/24 02:50:41;;;;;;;0.50;0.50;;;;;;;;;;5012404;28;20527;-67
2021/10/24 02:53:07;;;;;;;0.40;0.40;;;;;;;;;;5013119;28;20474;-67
2021/10/24 02:55:33;;;;;;;0.40;0.40;;;;;;;;;;5012761;28;20421;-67
2021/10/24 02:57:59;;;;;;;0.50;0.50;;;;;;;;;;5012940;28;20717;-67
2021/10/24 03:00:25;;;;;;;0.50;0.50;;;;;;;;;;5012145;28;20479;-67
2021/10/24 03:02:51;;;;;;;0.60;0.60;;;;;;;;;;5012907;28;20186;-67
2021/10/24 03:05:17;;;;;;;0.50;0.50;;;;;;;;;;5007986;28;20217;-67
2021/10/24 03:07:43;;;;;;;0.50;0.50;;;;;;;;;;5011444;28;20428;-67
2021/10/24 03:10:09;;;;;;;0.50;0.50;;;;;;;;;;5011959;28;20529;-66
2021/10/24 03:12:35;;;;;;;0.45;0.45;;;;;;;;;;5012172;28;20883;-67
2021/10/24 03:15:02;;;;;;;0.50;0.50;;;;;;;;;;5010946;28;20264;-67
2021/10/24 03:17:28;;;;;;;0.50;0.50;;;;;;;;;;5012006;28;20571;-66
2021/10/24 03:19:54;;;;;;;0.50;0.50;;;;;;;;;;5012492;28;20251;-67
2021/10/24 03:22:20;;;;;;;0.50;0.50;;;;;;;;;;5011801;28;20421;-66
2021/10/24 03:24:45;;;;;;;0.50;0.50;;;;;;;;;;5012174;28;20456;-66
2021/10/24 03:27:11;;;;;;;0.40;0.40;;;;;;;;;;5012337;28;20792;-67
2021/10/24 03:29:37;;;;;;;0.70;0.70;;;;;;;;;;5011751;28;20440;-67
2021/10/24 03:32:04;;;;;;;0.50;0.50;;;;;;;;;;5012228;28;20641;-67
2021/10/24 03:34:30;;;;;;;0.50;0.50;;;;;;;;;;5011916;28;20262;-67
2021/10/24 03:36:55;;;;;;;0.40;0.40;;;;;;;;;;5009595;28;20275;-67
2021/10/24 03:39:21;;;;;;;0.47;0.47;;;;;;;;;;5010837;28;20436;-67
2021/10/24 03:41:47;;;;;;;0.50;0.50;;;;;;;;;;5011823;28;20427;-67
2021/10/24 03:44:13;;;;;;;0.40;0.40;;;;;;;;;;5011691;28;20735;-67
2021/10/24 03:46:39;;;;;;;0.40;0.40;;;;;;;;;;5012017;28;20428;-66
2021/10/24 03:49:05;;;;;;;0.50;0.50;;;;;;;;;;5011940;28;20444;-67
2021/10/24 03:51:31;;;;;;;0.40;0.40;;;;;;;;;;5011265;28;20184;-67
2021/10/24 03:53:57;;;;;;;0.40;0.40;;;;;;;;;;5011913;28;20458;-67
2021/10/24 03:56:23;;;;;;;0.40;0.40;;;;;;;;;;5011709;28;20499;-67
2021/10/24 03:58:49;;;;;;;0.50;0.50;;;;;;;;;;5011629;28;20450;-67
2021/10/24 04:01:15;;;;;;;0.50;0.50;;;;;;;;;;5011272;28;20927;-67
2021/10/24 04:03:41;;;;;;;0.40;0.40;;;;;;;;;;5011896;28;20289;-67
2021/10/24 04:06:07;;;;;;;0.50;0.50;;;;;;;;;;5011518;28;20896;-67
2021/10/24 04:08:33;;;;;;;0.50;0.50;;;;;;;;;;5011954;28;20185;-67
2021/10/24 04:10:59;;;;;;;0.50;0.50;;;;;;;;;;5011492;28;20420;-67
2021/10/24 04:13:25;;;;;;;0.40;0.40;;;;;;;;;;5011574;28;20189;-67
2021/10/24 04:15:52;;;;;;;0.60;0.60;;;;;;;;;;5011309;28;20435;-67
2021/10/24 04:18:18;;;;;;;0.40;0.40;;;;;;;;;;5011789;28;20265;-67
2021/10/24 04:20:44;;;;;;;0.50;0.50;;;;;;;;;;5011061;28;20631;-67
2021/10/24 04:23:10;;;;;;;0.40;0.40;;;;;;;;;;5011832;28;20409;-67
2021/10/24 04:25:36;;;;;;;0.50;0.50;;;;;;;;;;5011357;28;20520;-67
2021/10/24 04:28:02;;;;;;;0.50;0.50;;;;;;;;;;5010489;28;20305;-67
2021/10/24 04:30:28;;;;;;;0.40;0.40;;;;;;;;;;5011146;28;20203;-66
2021/10/24 04:32:54;;;;;;;0.60;0.60;;;;;;;;;;5011274;28;20292;-67
2021/10/24 04:35:20;;;;;;;0.50;0.50;;;;;;;;;;5011139;28;20424;-67
2021/10/24 04:37:46;;;;;;;0.50;0.50;;;;;;;;;;5010292;28;20186;-67
2021/10/24 04:40:12;;;;;;;0.40;0.40;;;;;;;;;;5010895;28;20550;-66
2021/10/24 04:42:38;;;;;;;0.50;0.50;;;;;;;;;;5011563;28;20645;-67
2021/10/24 04:45:05;;;;;;;0.50;0.50;;;;;;;;;;5011175;28;20281;-66
2021/10/24 04:47:31;;;;;;;0.50;0.50;;;;;;;;;;5011204;28;20724;-66
2021/10/24 04:49:56;;;;;;;0.40;0.40;;;;;;;;;;5014818;28;20197;-66
2021/10/24 04:52:22;;;;;;;0.50;0.50;;;;;;;;;;5014753;28;20231;-66
2021/10/24 04:54:48;;;;;;;0.50;0.50;;;;;;;;;;5013862;28;20429;-67
2021/10/24 04:57:14;;;;;;;0.50;0.50;;;;;;;;;;5015438;28;20423;-67
2021/10/24 04:59:41;;;;;;;0.60;0.60;;;;;;;;;;5014598;28;20460;-67
2021/10/24 05:02:07;;;;;;;0.50;0.50;;;;;;;;;;5014625;28;20190;-67
2021/10/24 05:04:33;;;;;;;0.40;0.40;;;;;;;;;;5014954;28;20201;-67
2021/10/24 05:06:59;;;;;;;0.50;0.50;;;;;;;;;;5014981;28;20802;-66
2021/10/24 05:09:25;;;;;;;0.50;0.50;;;;;;;;;;5014803;28;20197;-66
2021/10/24 05:11:50;;;;;;;0.40;0.40;;;;;;;;;;5014623;28;20416;-66
2021/10/24 05:14:16;;;;;;;0.50;0.50;;;;;;;;;;5014121;28;20911;-66
2021/10/24 05:16:42;;;;;;;0.50;0.50;;;;;;;;;;5014914;28;20431;-66
2021/10/24 05:19:08;;;;;;;0.50;0.50;;;;;;;;;;5014823;28;20199;-66
2021/10/24 05:21:34;;;;;;;0.50;0.50;;;;;;;;;;5012761;28;20820;-67
2021/10/24 05:24:00;;;;;;;0.50;0.50;;;;;;;;;;5014763;28;20248;-67
2021/10/24 05:26:26;;;;;;;0.60;0.60;;;;;;;;;;5014438;28;20408;-67
2021/10/24 05:28:52;;;;;;;0.50;0.50;;;;;;;;;;5013569;28;20251;-67
2021/10/24 05:31:18;;;;;;;0.50;0.50;;;;;;;;;;5014303;28;20916;-67
2021/10/24 05:33:45;;;;;;;0.50;0.50;;;;;;;;;;5014267;28;20413;-67
2021/10/24 05:36:11;;;;;;;0.50;0.50;;;;;;;;;;5014291;28;20413;-67
2021/10/24 05:38:37;;;;;;;0.50;0.50;;;;;;;;;;5013829;28;20181;-67
2021/10/24 05:41:03;;;;;;;0.50;0.50;;;;;;;;;;5013908;28;20470;-67
2021/10/24 05:43:29;;;;;;;0.50;0.50;;;;;;;;;;5013602;28;20487;-66
2021/10/24 05:45:55;;;;;;;0.50;0.50;;;;;;;;;;5014177;28;20422;-67
2021/10/24 05:48:20;;;;;;;0.50;0.50;;;;;;;;;;5013444;28;20260;-67
2021/10/24 05:50:47;;;;;;;0.50;0.50;;;;;;;;;;5013867;28;20204;-67
2021/10/24 05:53:13;;;;;;;0.50;0.50;;;;;;;;;;5013703;28;20413;-67
2021/10/24 05:55:39;;;;;;;0.50;0.50;;;;;;;;;;5014063;28;20652;-67
2021/10/24 05:58:05;;;;;;;0.40;0.40;;;;;;;;;;5012811;28;20405;-67
2021/10/24 06:00:32;;;;;;;0.60;0.60;;;;;;;;;;5010424;28;20619;-64
2021/10/24 06:03:05;;;;;;;0.40;0.40;;;;;;;;;;5003168;28;20249;-65
2021/10/24 06:05:31;;;;;;;0.50;0.50;;;;;;;;;;5013871;28;20178;-65
2021/10/24 06:07:57;;;;;;;0.40;0.40;;;;;;;;;;5013720;28;20260;-66
2021/10/24 06:10:28;;;;;;;0.40;0.40;;;;;;;;;;5013422;28;20403;-66
2021/10/24 06:12:54;;;;;;;0.50;0.50;;;;;;;;;;5012848;28;20177;-66
2021/10/24 06:15:21;;;;;;;0.50;0.50;;;;;;;;;;5013676;28;20191;-66
2021/10/24 06:17:48;;;;;;;0.50;0.50;;;;;;;;;;5013307;28;20181;-66
2021/10/24 06:20:15;;;;;;;0.40;0.40;;;;;;;;;;5012859;28;20200;-66
2021/10/24 06:22:41;;;;;;;0.50;0.50;;;;;;;;;;5012113;28;20182;-66
2021/10/24 06:25:08;;;;;;;0.50;0.50;;;;;;;;;;5013537;28;20195;-66
2021/10/24 06:27:41;;;;;;;0.40;0.40;;;;;;;;;;5013338;28;20549;-66
2021/10/24 06:30:08;;;;;;;0.40;0.40;;;;;;;;;;5012696;28;20199;-67
2021/10/24 06:32:34;;;;;;;0.50;0.50;;;;;;;;;;5009163;28;20594;-67
2021/10/24 06:35:01;;;;;;;0.40;0.40;;;;;;;;;;5012970;28;20173;-67
2021/10/24 06:37:27;;;;;;;0.60;0.60;;;;;;;;;;5013065;28;20421;-67
2021/10/24 06:39:53;;;;;;;0.40;0.40;;;;;;;;;;5012472;28;20217;-67
2021/10/24 06:42:19;;;;;;;0.50;0.50;;;;;;;;;;5016583;28;20252;-67
2021/10/24 06:44:45;;;;;;;0.40;0.40;;;;;;;;;;5012820;28;20519;-67
2021/10/24 06:47:11;;;;;;;0.50;0.50;;;;;;;;;;5012359;28;20424;-67
2021/10/24 06:49:37;;;;;;;0.50;0.50;;;;;;;;;;5013204;28;20519;-67
2021/10/24 06:52:05;;;;;;;0.50;0.50;;;;;;;;;;5011620;28;20184;-66
2021/10/24 06:54:31;;;;;;;0.50;0.50;;;;;;;;;;5012188;28;20205;-67
2021/10/24 06:56:57;;;;;;;0.40;0.40;;;;;;;;;;5012808;28;20186;-67
2021/10/24 06:59:23;;;;;;;0.50;0.50;;;;;;;;;;5039087;22;20227;-65
2021/10/24 07:01:50;;;;;;;0.40;0.40;;;;;;;;;;5063657;28;20414;-64
2021/10/24 07:04:16;;;;;;;0.50;0.50;;;;;;;;;;5072456;28;20199;-65
2021/10/24 07:06:42;;;;;;;0.40;0.40;;;;;;;;;;5072648;28;20176;-65
2021/10/24 07:09:08;;;;;;;0.55;0.55;;;;;;;;;;5070428;28;20916;-64
2021/10/24 07:11:33;;;;;;;0.50;0.50;;;;;;;;;;5069149;28;20277;-64
2021/10/24 07:14:00;;;;;;;0.47;0.47;;;;;;;;;;5066551;28;20422;-65
2021/10/24 07:16:26;;;;;;;0.40;0.40;;;;;;;;;;5053350;28;20450;-64
2021/10/24 07:18:52;;;;;;;0.40;0.40;;;;;;;;;;5053504;28;20181;-65
2021/10/24 07:21:17;;;;;;;0.40;0.40;;;;;;;;;;5057885;28;20197;-65
2021/10/24 07:23:43;;;;;;;0.40;0.40;;;;;;;;;;5060940;28;20472;-65
2021/10/24 07:26:10;;;;;;;0.40;0.40;;;;;;;;;;5071251;28;20544;-65
2021/10/24 07:28:35;;;;;;;0.50;0.50;;;;;;;;;;5071325;28;20418;-65
2021/10/24 07:31:01;;;;;;;0.50;0.50;;;;;;;;;;5071017;28;20551;-65
2021/10/24 07:33:27;;;;;;;0.43;0.43;;;;;;;;;;5051222;28;20426;-65
2021/10/24 07:35:53;;;;;;;0.40;0.40;;;;;;;;;;5052241;28;20678;-65
2021/10/24 07:38:19;;;;;;;0.50;0.50;;;;;;;;;;5070858;28;20180;-65
2021/10/24 07:40:46;;;;;;;0.50;0.50;;;;;;;;;;5055224;28;20434;-65
2021/10/24 07:43:21;;;;;;;0.50;0.50;;;;;;;;;;5067819;28;20428;-65
2021/10/24 07:45:48;;;;;;;0.40;0.40;;;;;;;;;;5066446;28;20264;-65
2021/10/24 07:48:14;;;;;;;0.40;0.40;;;;;;;;;;5050694;28;20184;-66
2021/10/24 07:50:41;;;;;;;0.50;0.50;;;;;;;;;;5051239;28;20196;-65
2021/10/24 07:53:07;;;;;;;0.50;0.50;;;;;;;;;;5052100;28;20727;-65
2021/10/24 07:55:33;;;;;;;0.40;0.40;;;;;;;;;;5056671;28;20251;-65
2021/10/24 07:57:59;;;;;;;0.40;0.40;;;;;;;;;;5051755;28;20409;-65
2021/10/24 08:00:25;;;;;;;0.40;0.40;;;;;;;;;;5051536;28;20216;-65
2021/10/24 08:02:51;;;;;;;0.47;0.47;;;;;;;;;;5051686;28;20549;-65
2021/10/24 08:05:18;;;;;;;0.40;0.40;;;;;;;;;;5051597;28;20206;-66
2021/10/24 08:07:44;;;;;;;0.40;0.40;;;;;;;;;;5050671;28;20245;-65
2021/10/24 08:10:10;;;;;;;0.40;0.40;;;;;;;;;;5051484;28;20585;-65
2021/10/24 08:12:40;;;;;;;0.40;0.40;;;;;;;;;;5051980;28;20650;-65
2021/10/24 08:15:06;;;;;;;0.50;0.50;;;;;;;;;;5051827;28;20190;-65
2021/10/24 08:17:33;;;;;;;0.50;0.50;;;;;;;;;;5050457;28;20195;-65
2021/10/24 08:19:58;;;;;;;0.40;0.40;;;;;;;;;;5051791;28;20187;-65
2021/10/24 08:22:25;;;;;;;0.50;0.50;;;;;;;;;;5051778;28;20195;-65
2021/10/24 08:24:52;;;;;;;0.40;0.40;;;;;;;;;;5055034;28;20822;-65
2021/10/24 08:27:18;;;;;;;0.40;0.40;;;;;;;;;;5055805;28;20181;-64
2021/10/24 08:29:44;;;;;;;0.50;0.50;;;;;;;;;;5055839;28;20237;-65
2021/10/24 08:32:11;;;;;;;0.40;0.40;;;;;;;;;;5054274;28;20176;-65
2021/10/24 08:34:41;;;;;;;0.50;0.50;;;;;;;;;;5055757;28;20209;-65
2021/10/24 08:37:08;;;;;;;0.40;0.40;;;;;;;;;;5055865;28;20647;-64
2021/10/24 08:39:37;;;;;;;0.50;0.50;;;;;;;;;;5055621;28;20625;-65
2021/10/24 08:42:04;;;;;;;0.40;0.40;;;;;;;;;;5055472;28;20179;-65
2021/10/24 08:44:30;;;;;;;0.40;0.40;;;;;;;;;;5055575;28;20196;-65
2021/10/24 08:46:57;;;;;;;0.40;0.40;;;;;;;;;;5055703;28;20176;-65
2021/10/24 08:49:23;;;;;;;0.40;0.40;;;;;;;;;;5055536;28;20258;-65
2021/10/24 08:51:49;;;;;;;0.40;0.40;;;;;;;;;;5055028;28;20211;-65
2021/10/24 08:54:16;;;;;;;0.40;0.40;;;;;;;;;;5055186;28;20422;-65
2021/10/24 08:56:42;;;;;;;0.40;0.40;;;;;;;;;;5055340;28;20172;-65
2021/10/24 08:59:08;;;;;;;0.40;0.40;;;;;;;;;;5055108;28;20168;-65
2021/10/24 09:01:35;;;;;;;0.40;0.40;;;;;;;;;;5054778;28;20207;-65
2021/10/24 09:04:00;;;;;;;0.40;0.40;;;;;;;;;;5055319;28;20489;-66
2021/10/24 09:06:42;;;;;;;0.40;0.40;;;;;;;;;;5055299;28;20645;-65
2021/10/24 09:09:12;;;;;;;0.40;0.40;;;;;;;;;;5055258;28;20920;-65
2021/10/24 09:11:40;;;;;;;0.40;0.40;;;;;;;;;;5054837;28;20179;-65
2021/10/24 09:14:06;;;;;;;0.40;0.40;;;;;;;;;;5055293;28;20206;-66
2021/10/24 09:16:51;;;;;;;0.30;0.30;;;;;;;;;;5055099;28;20186;-65
2021/10/24 09:19:17;;;;;;;0.30;0.30;;;;;;;;;;5054817;28;20438;-66
2021/10/24 09:21:43;;;;;;;0.30;0.30;;;;;;;;;;5054421;28;20449;-66
2021/10/24 09:24:12;;;;;;;0.30;0.30;;;;;;;;;;5054445;28;20839;-66
2021/10/24 09:26:39;;;;;;;0.30;0.30;;;;;;;;;;5054821;28;20479;-66
2021/10/24 09:29:14;;;;;;;0.30;0.30;;;;;;;;;;5053525;28;20418;-66
2021/10/24 09:31:41;;;;;;;0.40;0.40;;;;;;;;;;5054714;28;20414;-66
2021/10/24 09:34:22;;;;;;;0.30;0.30;;;;;;;;;;5054711;28;20414;-66
2021/10/24 09:36:52;;;;;;;0.30;0.30;;;;;;;;;;5054592;28;20411;-65
2021/10/24 09:39:18;;;;;;;0.30;0.30;;;;;;;;;;5054461;28;20409;-65
2021/10/24 09:41:45;;;;;;;0.30;0.30;;;;;;;;;;5054052;28;20505;-66
2021/10/24 09:44:12;;;;;;;0.30;0.30;;;;;;;;;;5054763;28;20544;-66
2021/10/24 09:46:47;;;;;;;0.20;0.20;;;;;;;;;;5054598;28;20408;-67
2021/10/24 09:49:17;;;;;;;0.20;0.20;;;;;;;;;;5054362;28;20415;-67
2021/10/24 09:51:43;;;;;;;0.40;0.30;;;;;;;;;;5053970;28;20397;-65
2021/10/24 09:54:17;;;;;;;0.30;0.30;;;;;;;;;;5054101;28;20544;-67
2021/10/24 09:56:43;;;;;;;0.30;0.30;;;;;;;;;;5054034;28;20410;-66
2021/10/24 09:59:09;;;;;;;0.30;0.30;;;;;;;;;;5053967;28;20417;-65
2021/10/24 10:01:35;;;;;;;0.33;0.33;;;;;;;;;;5053844;28;20423;-66
2021/10/24 10:04:02;;;;;;;0.30;0.30;;;;;;;;;;5053845;28;20479;-66
2021/10/24 10:06:29;;;;;;;0.30;0.30;;;;;;;;;;5052682;28;20414;-66
2021/10/24 10:08:56;;;;;;;0.37;0.37;;;;;;;;;;5053970;28;20166;-66
2021/10/24 10:11:24;;;;;;;0.40;0.40;;;;;;;;;;5057055;28;20446;-65
2021/10/24 10:13:59;;;;;;;0.30;0.30;;;;;;;;;;5053874;28;20182;-65
2021/10/24 10:16:31;;;;;;;0.30;0.30;;;;;;;;;;5055129;28;20428;-66
2021/10/24 10:18:57;;;;;;;0.30;0.30;;;;;;;;;;5073760;28;20834;-66
2021/10/24 10:21:33;;;;;;;0.30;0.30;;;;;;;;;;5073745;28;20443;-66
2021/10/24 10:24:04;;;;;;;0.30;0.30;;;;;;;;;;5073174;28;20551;-66
2021/10/24 10:26:31;;;;;;;0.20;0.20;;;;;;;;;;5075911;28;20500;-65
2021/10/24 10:28:57;;;;;;;0.20;0.20;;;;;;;;;;5074369;28;20401;-65
2021/10/24 10:31:23;;;;;;;0.20;0.20;;;;;;;;;;5074510;28;20844;-66
2021/10/24 10:33:59;;;;;;;0.20;0.20;;;;;;;;;;5075399;28;20385;-66
2021/10/24 10:36:45;;;;;;;0.20;0.20;;;;;;;;;;5073666;28;20629;-66
2021/10/24 10:39:40;;;;;;;1.67;0.30;;;;;;;;;;5073106;28;20820;-66
2021/10/24 10:42:25;;;;;;;0.20;0.20;;;;;;;;;;5062936;28;20392;-66
2021/10/24 10:45:09;;;;;;;0.20;0.20;;;;;;;;;;5074538;28;20453;-66
2021/10/24 10:47:53;;;;;;;0.20;0.20;;;;;;;;;;5072222;28;20448;-66
2021/10/24 10:50:33;;;;;;;2.00;0.27;;;;;;;;;;5072633;28;20438;-66
2021/10/24 10:53:00;;;;;;;0.20;0.20;;;;;;;;;;5072591;28;20386;-66
2021/10/24 10:55:28;;;;;;;0.20;0.20;;;;;;;;;;5073071;28;20469;-65
2021/10/24 10:57:54;;;;;;;0.20;0.20;;;;;;;;;;5072271;28;20924;-66
2021/10/24 11:00:33;;;;;;;0.20;0.20;;;;;;;;;;5072460;28;20948;-66
2021/10/24 11:02:59;;;;;;;0.20;0.20;;;;;;;;;;5072775;28;20485;-67
2021/10/24 11:05:36;;;;;;;0.20;0.20;;;;;;;;;;5072577;28;20904;-66
2021/10/24 11:08:02;;;;;;;0.20;0.20;;;;;;;;;;5072301;28;20785;-66
2021/10/24 11:10:47;;;;;;;0.20;0.20;;;;;;;;;;5072573;28;20873;-66
2021/10/24 11:13:31;;;;;;;0.20;0.20;;;;;;;;;;5072592;28;20767;-66
2021/10/24 11:16:17;;;;;;;0.20;0.20;;;;;;;;;;5072528;28;20376;-66
2021/10/24 11:18:43;;;;;;;0.20;0.20;;;;;;;;;;5071594;28;20431;-65
2021/10/24 11:21:09;;;;;;;0.20;0.20;;;;;;;;;;5072058;28;20432;-65
2021/10/24 11:23:36;;;;;;;0.20;0.20;;;;;;;;;;5072592;28;20437;-66
2021/10/24 11:26:02;;;;;;;0.20;0.20;;;;;;;;;;5071948;28;20385;-66
2021/10/24 11:28:28;;;;;;;0.20;0.20;;;;;;;;;;5072044;28;20377;-65
2021/10/24 11:31:07;;;;;;;0.20;0.20;;;;;;;;;;5071618;28;20825;-65
2021/10/24 11:33:43;;;;;;;0.20;0.20;;;;;;;;;;5072126;28;20381;-65
2021/10/24 11:36:09;;;;;;;0.20;0.20;;;;;;;;;;5072124;28;20437;-65
2021/10/24 11:38:35;;;;;;;0.20;0.20;;;;;;;;;;5072264;28;20401;-65
2021/10/24 11:41:01;;;;;;;0.20;0.20;;;;;;;;;;5071777;28;20766;-65
2021/10/24 11:43:29;;;;;;;0.20;0.20;;;;;;;;;;5071987;28;20376;-64
2021/10/24 11:46:03;;;;;;;0.20;0.20;;;;;;;;;;5072487;28;20402;-65
2021/10/24 11:48:32;;;;;;;0.20;0.20;;;;;;;;;;5072809;28;20384;-64
2021/10/24 11:51:18;;;;;;;0.20;0.20;;;;;;;;;;5071944;28;20476;-64
2021/10/24 11:53:45;;;;;;;0.20;0.20;;;;;;;;;;5071746;28;20837;-64
2021/10/24 11:56:15;;;;;;;0.20;0.20;;;;;;;;;;5071994;28;20407;-64
2021/10/24 12:01:36;;;;;;;0.20;0.20;;;;;;;;;;5071955;28;20457;-66
2021/10/24 12:04:05;;;;;;;0.20;0.20;;;;;;;;;;5071439;28;20449;-66
2021/10/24 12:06:54;;;;;;;0.20;0.20;;;;;;;;;;5071771;28;20405;-66
2021/10/24 12:09:29;;;;;;;0.20;0.20;;;;;;;;;;5063828;28;20428;-66
2021/10/24 12:12:05;;;;;;;0.20;0.20;;;;;;;;;;5070329;28;20748;-65
2021/10/24 12:14:30;;;;;;;0.20;0.20;;;;;;;;;;5070419;28;20881;-65
2021/10/24 12:16:57;;;;;;;0.20;0.20;;;;;;;;;;5071532;28;20414;-66
2021/10/24 12:19:31;;;;;;;0.20;0.20;;;;;;;;;;5071490;28;20419;-65
2021/10/24 12:22:02;;;;;;;0.20;0.20;;;;;;;;;;5071254;28;20891;-65
2021/10/24 12:24:30;;;;;;;0.20;0.20;;;;;;;;;;5071658;28;20461;-65
2021/10/24 12:27:03;;;;;;;0.30;0.30;;;;;;;;;;5070966;28;20384;-65
2021/10/24 12:29:29;;;;;;;0.30;0.30;;;;;;;;;;5071292;28;20403;-65
2021/10/24 12:32:06;;;;;;;0.20;0.20;;;;;;;;;;5071580;28;21113;-65
2021/10/24 12:34:32;;;;;;;0.20;0.20;;;;;;;;;;5071424;28;20512;-65
2021/10/24 12:36:58;;;;;;;0.20;0.20;;;;;;;;;;5071257;28;20863;-65
2021/10/24 12:39:26;;;;;;;0.20;0.20;;;;;;;;;;5071264;28;20410;-65
2021/10/24 12:41:52;;;;;;;0.20;0.20;;;;;;;;;;5053294;28;20409;-65
2021/10/24 12:44:24;;;;;;;0.20;0.20;;;;;;;;;;5070838;28;20456;-65
2021/10/24 12:46:51;;;;;;;0.30;0.30;;;;;;;;;;5071236;28;20416;-66
2021/10/24 12:49:20;;;;;;;0.30;0.30;;;;;;;;;;5070916;28;20498;-65
2021/10/24 12:51:47;;;;;;;0.30;0.30;;;;;;;;;;5071410;28;20388;-65
2021/10/24 12:54:25;;;;;;;0.30;0.30;;;;;;;;;;5071260;28;20918;-65
2021/10/24 12:56:51;;;;;;;0.30;0.30;;;;;;;;;;5071165;28;20428;-65
2021/10/24 12:59:17;;;;;;;0.30;0.30;;;;;;;;;;5070613;28;20893;-65
2021/10/24 13:01:47;;;;;;;0.27;0.27;;;;;;;;;;5056790;22;20904;-66
2021/10/24 13:04:13;;;;;;;0.30;0.30;;;;;;;;;;5030939;28;21185;-66
2021/10/24 13:06:38;;;;;;;0.20;0.20;;;;;;;;;;5031147;28;20524;-66
2021/10/24 13:09:04;;;;;;;0.30;0.30;;;;;;;;;;5031838;28;20458;-66
2021/10/24 13:11:30;;;;;;;0.30;0.30;;;;;;;;;;5034249;28;20430;-66
2021/10/24 13:13:56;;;;;;;0.30;0.30;;;;;;;;;;5034823;28;20415;-65
2021/10/24 13:16:23;;;;;;;0.30;0.30;;;;;;;;;;5034796;28;20440;-65
2021/10/24 13:18:49;;;;;;;0.30;0.30;;;;;;;;;;5034575;28;20906;-65
2021/10/24 13:24:00;;;;;;;0.30;0.30;;;;;;;;;;5034555;28;20497;-65
2021/10/24 13:26:27;;;;;;;0.30;0.30;;;;;;;;;;5034563;28;20408;-65
2021/10/24 13:28:53;;;;;;;0.30;0.30;;;;;;;;;;5034586;28;20798;-65
2021/10/24 13:31:19;;;;;;;0.30;0.30;;;;;;;;;;5032768;28;20443;-66
2021/10/24 13:33:45;;;;;;;0.30;0.30;;;;;;;;;;5032365;28;20447;-66
2021/10/24 13:36:11;;;;;;;0.30;0.30;;;;;;;;;;5034541;28;20390;-66
2021/10/24 13:38:37;;;;;;;0.30;0.30;;;;;;;;;;5034522;28;20958;-65
2021/10/24 13:41:03;;;;;;;0.30;0.30;;;;;;;;;;5033922;28;20431;-65
2021/10/24 13:43:29;;;;;;;0.30;0.30;;;;;;;;;;5033921;28;20412;-66
2021/10/24 13:45:55;;;;;;;0.30;0.30;;;;;;;;;;5033733;28;20403;-65
2021/10/24 13:48:22;;;;;;;0.30;0.30;;;;;;;;;;5034368;28;20902;-65
2021/10/24 13:50:48;;;;;;;0.30;0.30;;;;;;;;;;5034351;28;20213;-67
2021/10/24 13:53:14;;;;;;;0.33;0.33;;;;;;;;;;5034342;28;20485;-66
2021/10/24 13:55:40;;;;;;;0.30;0.30;;;;;;;;;;5033930;28;20411;-67
2021/10/24 13:58:06;;;;;;;0.30;0.30;;;;;;;;;;5034037;28;20444;-66
2021/10/24 14:00:32;;;;;;;0.30;0.30;;;;;;;;;;5033926;28;20975;-67
2021/10/24 14:03:02;;;;;;;0.30;0.30;;;;;;;;;;5033816;28;20418;-66
2021/10/24 14:05:28;;;;;;;0.30;0.30;;;;;;;;;;5033876;28;20816;-66
2021/10/24 14:07:54;;;;;;;0.30;0.30;;;;;;;;;;5031775;28;20421;-66
2021/10/24 14:10:20;;;;;;;0.30;0.30;;;;;;;;;;5033547;28;20428;-66
2021/10/24 14:12:46;;;;;;;0.30;0.30;;;;;;;;;;5034071;28;20406;-67
2021/10/24 14:15:12;;;;;;;0.30;0.30;;;;;;;;;;5033772;28;20782;-66
2021/10/24 14:17:38;;;;;;;0.30;0.30;;;;;;;;;;5032999;28;20406;-66
2021/10/24 14:20:05;;;;;;;0.30;0.30;;;;;;;;;;5033238;28;20562;-65
2021/10/24 14:22:32;;;;;;;0.30;0.30;;;;;;;;;;5032639;28;20413;-65
2021/10/24 14:24:58;;;;;;;0.30;0.30;;;;;;;;;;5032146;28;20465;-65
2021/10/24 14:27:24;;;;;;;0.30;0.30;;;;;;;;;;5033250;28;20890;-66
2021/10/24 14:29:50;;;;;;;0.30;0.30;;;;;;;;;;5032808;28;20379;-66
2021/10/24 14:32:16;;;;;;;0.30;0.30;;;;;;;;;;5033302;28;20464;-66
2021/10/24 14:34:42;;;;;;;0.30;0.30;;;;;;;;;;5011490;28;20795;-66
2021/10/24 14:37:08;;;;;;;0.30;0.30;;;;;;;;;;5013509;28;20419;-66
2021/10/24 14:39:34;;;;;;;0.30;0.30;;;;;;;;;;5013078;28;20411;-66
2021/10/24 14:42:01;;;;;;;0.30;0.30;;;;;;;;;;5012727;28;20439;-66
2021/10/24 14:44:27;;;;;;;0.33;0.33;;;;;;;;;;5011974;28;20473;-65
2021/10/24 14:46:53;;;;;;;0.30;0.30;;;;;;;;;;5013245;28;20464;-66
2021/10/24 14:49:19;;;;;;;0.30;0.30;;;;;;;;;;5013134;28;20417;-65